map of PDT home
PDT - Airport
Location
City:  Pendleton, Oregon, United States
Name:Eastern Oregon Regional at Pendleton
ICAO:KPDT
IATA:PDT
FAA LID:PDT

Details
Type:Airport (Part 139 Class IV)
Use:Public/Civil
Latitude:4541'41"N (45.694765)
Longitude:11850'35"W (-118.843007)
Datum:WGS 1984
Elevation:1496 ft (456 m)
Variation:14.52E (WMM2015 magnetic declination)
-0.13 annual change
Runways:2
Longest:6301 × 150 ft (1921 × 45.5 m), paved

Time
Time Zone:UTC-8 (DST-7)
Local Time:

Weather
METAR:KPDT 130853Z AUTO 34004KT 10SM OVC009 M03/M05 A3051 RMK AO2 SLP345 T10281050 53001
TAF:KPDT 130758Z 1308/1406 VRB04KT P6SM OVC008
FM131600 31004KT P6SM OVC011

Related Locations
Nearby:
Farthest:FTU: 10804 mi / 17388 km
Tolagnaro [Maurillac Airport (Fort Dauphin Airport)], MG

Find:

   beyond  
but within

Other Information
Maps:
Delays:
NOTAMs:
Links:
Sources:

  
flag of United States
flag of Oregon
  

Airport Diagram

Airport diagram for PDT

Airport diagram PDF

Sectional Chart

Flight Planning
at skyvector.com

Satellite Image

Google Maps Satellite view

 

Copyright © 2004-2017 Karl L. Swartz. All rights reserved.
The Great Circle Mapper name and logo are trademarks of the Great Circle Mapper.
All other trademarks mentioned herein belong to their respective owners.
Please see credits for attibutions and further copyright information.

  Follow gcmap on Facebook Follow gcmap on Twitter Follow gcmap on Google+ GCmap on LinkedIn

hCard Microformat

Geo Microformat